createdAt,value
2019-06-27T00:00:09.534Z,89.2
2019-06-27T00:01:23.596Z,88.6
2019-06-27T00:02:37.837Z,88.3
2019-06-27T00:03:51.858Z,88.7
2019-06-27T00:05:05.947Z,88.7
2019-06-27T00:07:34.207Z,88.3
2019-06-27T00:08:48.315Z,87.5
2019-06-27T00:10:02.541Z,87.3
2019-06-27T00:11:19.631Z,88.3
2019-06-27T00:12:30.685Z,87.8
2019-06-27T00:13:44.818Z,88.6
2019-06-27T00:14:58.924Z,87.5
2019-06-27T00:16:13.050Z,87.2
2019-06-27T00:17:27.172Z,87.8
2019-06-27T00:18:41.299Z,87.6
2019-06-27T00:19:55.442Z,87.7
2019-06-27T00:21:09.535Z,87.7
2019-06-27T00:22:23.690Z,87.3
2019-06-27T00:23:37.779Z,87.3
2019-06-27T00:24:51.919Z,87.5
2019-06-27T00:26:06.194Z,87.7
2019-06-27T00:27:20.151Z,86.8
2019-06-27T00:28:34.592Z,86.8
2019-06-27T00:29:48.396Z,86.8
2019-06-27T00:31:02.526Z,87
2019-06-27T00:32:16.645Z,86.7
2019-06-27T00:33:30.765Z,86.2
2019-06-27T00:34:45.062Z,86.7
2019-06-27T00:35:59.067Z,86.3
2019-06-27T00:37:13.139Z,86.3
2019-06-27T00:38:27.251Z,86.5
2019-06-27T00:39:41.503Z,86.3
2019-06-27T00:40:55.509Z,86.5
2019-06-27T00:42:09.719Z,87.2
2019-06-27T00:43:23.802Z,86.5
2019-06-27T00:44:37.971Z,86.5
2019-06-27T00:45:51.987Z,86.3
2019-06-27T00:47:06.123Z,86.5
2019-06-27T00:48:20.557Z,86.5
2019-06-27T00:49:34.403Z,86.4
2019-06-27T00:50:48.592Z,86.5
2019-06-27T00:52:02.676Z,86.5
2019-06-27T00:53:16.739Z,87.1
2019-06-27T00:54:30.870Z,86.3
2019-06-27T00:55:45.017Z,86.4
2019-06-27T00:56:59.134Z,86.4
2019-06-27T00:58:15.193Z,85.8
2019-06-27T00:59:30.161Z,85.4
2019-06-27T01:00:41.479Z,85.3
2019-06-27T01:01:55.580Z,85.3
2019-06-27T01:03:09.724Z,86.5
2019-06-27T01:04:23.849Z,85.4
2019-06-27T01:05:37.947Z,84.8
2019-06-27T01:06:52.118Z,84.9
2019-06-27T01:08:06.198Z,85
2019-06-27T01:10:34.440Z,84.8
2019-06-27T01:11:48.717Z,84.7
2019-06-27T01:13:02.714Z,84.9
2019-06-27T01:14:16.811Z,84.8
2019-06-27T01:15:31.045Z,85
2019-06-27T01:16:45.064Z,84.3
2019-06-27T01:17:59.274Z,84.6
2019-06-27T01:19:13.720Z,84.9
2019-06-27T01:20:27.435Z,84.7
2019-06-27T01:21:41.542Z,84.3
2019-06-27T01:22:55.693Z,85
2019-06-27T01:24:09.789Z,84.6
2019-06-27T01:25:23.940Z,84.9
2019-06-27T01:26:38.067Z,85
2019-06-27T01:27:52.210Z,84.6
2019-06-27T01:29:06.296Z,84.9
2019-06-27T01:30:20.592Z,84.9
2019-06-27T01:31:34.557Z,84.7
2019-06-27T01:32:48.688Z,84.8
2019-06-27T01:34:02.771Z,85.4
2019-06-27T01:35:16.914Z,84.4
2019-06-27T01:36:31.029Z,84.6
2019-06-27T01:37:45.136Z,84.5
2019-06-27T01:38:59.372Z,84.8
2019-06-27T01:40:13.382Z,84.8
2019-06-27T01:41:27.511Z,84.8
2019-06-27T01:42:41.621Z,84.8
2019-06-27T01:43:55.775Z,84.9
2019-06-27T01:45:09.871Z,84.8
2019-06-27T01:46:24.002Z,85
2019-06-27T01:47:38.118Z,84.5
2019-06-27T01:48:52.241Z,84.9
2019-06-27T01:50:06.399Z,84.7
2019-06-27T01:51:20.584Z,85.4
2019-06-27T01:52:34.689Z,84.9
2019-06-27T01:53:48.884Z,84.8
2019-06-27T01:55:02.855Z,84.4
2019-06-27T01:56:16.969Z,85
2019-06-27T01:57:31.121Z,84
2019-06-27T01:58:45.237Z,84
2019-06-27T01:59:59.462Z,85
2019-06-27T02:01:13.481Z,84.9
2019-06-27T02:02:27.594Z,84.9
2019-06-27T02:03:41.721Z,85.2
2019-06-27T02:04:55.943Z,85
2019-06-27T02:06:10.052Z,85.2
2019-06-27T02:07:24.117Z,85.1
2019-06-27T02:08:38.203Z,84.7
2019-06-27T02:09:52.325Z,84.7
2019-06-27T02:11:06.546Z,84.6
2019-06-27T02:12:20.598Z,84.9
2019-06-27T02:13:34.717Z,84.8
2019-06-27T02:14:48.880Z,85.1
2019-06-27T02:16:02.934Z,84.8
2019-06-27T02:17:17.138Z,84.7
2019-06-27T02:18:31.181Z,84.8
2019-06-27T02:19:45.324Z,84.5
2019-06-27T02:20:59.545Z,84.9
2019-06-27T02:22:13.582Z,84.9
2019-06-27T02:24:42.912Z,84.7
2019-06-27T02:25:55.923Z,83.5
2019-06-27T02:27:10.122Z,84.7
2019-06-27T02:28:24.168Z,85.1
2019-06-27T02:29:38.319Z,84.8
2019-06-27T02:30:52.423Z,84
2019-06-27T02:32:06.582Z,85.2
2019-06-27T02:33:20.764Z,84.9
2019-06-27T02:34:34.899Z,83.8
2019-06-27T02:35:48.946Z,85.1
2019-06-27T02:37:03.024Z,84.3
2019-06-27T02:38:17.147Z,84.5
2019-06-27T02:39:31.333Z,85.2
2019-06-27T02:40:45.396Z,84.7
2019-06-27T02:41:59.523Z,84.9
2019-06-27T02:43:13.627Z,84.5
2019-06-27T02:44:27.772Z,84.7
2019-06-27T02:45:41.945Z,84.5
2019-06-27T02:46:56.090Z,84.1
2019-06-27T02:49:24.268Z,84.5
2019-06-27T02:50:38.389Z,84.8
2019-06-27T02:51:52.528Z,84.5
2019-06-27T02:53:06.709Z,84.8
2019-06-27T02:54:20.731Z,84.8
2019-06-27T02:55:34.882Z,84.8
2019-06-27T02:56:50.979Z,84.7
2019-06-27T02:58:03.118Z,84.7
2019-06-27T02:59:17.242Z,84.6
2019-06-27T03:00:31.348Z,85
2019-06-27T03:01:45.474Z,84.5
2019-06-27T03:03:00.229Z,84.6
2019-06-27T03:04:13.810Z,84.6
2019-06-27T03:05:27.845Z,84.8
2019-06-27T03:06:41.971Z,84.7
2019-06-27T03:07:56.092Z,84.6
2019-06-27T03:09:10.321Z,84.1
2019-06-27T03:10:24.324Z,84.1
2019-06-27T03:11:38.454Z,84.2
2019-06-27T03:12:52.573Z,83.7
2019-06-27T03:14:06.711Z,84.3
2019-06-27T03:15:20.815Z,84
2019-06-27T03:16:35.027Z,84.2
2019-06-27T03:17:49.068Z,83.6
2019-06-27T03:19:06.601Z,83.4
2019-06-27T03:20:17.305Z,84
2019-06-27T03:21:31.538Z,83.2
2019-06-27T03:22:45.556Z,83.8
2019-06-27T03:23:59.688Z,84.3
2019-06-27T03:25:13.798Z,83.2
2019-06-27T03:26:27.941Z,83.5
2019-06-27T03:27:42.124Z,83.7
2019-06-27T03:28:57.437Z,83.7
2019-06-27T03:30:10.410Z,83.5
2019-06-27T03:31:24.508Z,83.3
2019-06-27T03:32:38.570Z,84
2019-06-27T03:33:52.688Z,83.3
2019-06-27T03:35:07.229Z,83.4
2019-06-27T03:36:21.013Z,83.5
2019-06-27T03:37:35.079Z,83.5
2019-06-27T03:38:49.240Z,83.5
2019-06-27T03:40:03.295Z,83.7
2019-06-27T03:41:17.404Z,83.5
2019-06-27T03:43:45.648Z,83.5
2019-06-27T03:44:59.775Z,83.4
2019-06-27T03:46:13.904Z,83.2
2019-06-27T03:47:28.034Z,83.3
2019-06-27T03:48:42.189Z,83.7
2019-06-27T03:49:56.422Z,83.5
2019-06-27T03:51:10.395Z,83.9
2019-06-27T03:52:24.498Z,83.3
2019-06-27T03:53:38.623Z,83.9
2019-06-27T03:54:52.747Z,83.8
2019-06-27T03:57:21.117Z,83.5
2019-06-27T03:58:35.108Z,83.7
2019-06-27T03:59:49.245Z,83.8
2019-06-27T04:01:03.353Z,83.8
2019-06-27T04:02:17.496Z,83.9
2019-06-27T04:03:31.733Z,83.6
2019-06-27T04:04:47.411Z,83.3
2019-06-27T04:05:59.955Z,83.9
2019-06-27T04:08:28.156Z,83.5
2019-06-27T04:09:42.224Z,83.4
2019-06-27T04:10:56.348Z,83.7
2019-06-27T04:13:24.572Z,84
2019-06-27T04:14:38.745Z,83.5
2019-06-27T04:15:52.877Z,83.7
2019-06-27T04:17:06.999Z,83.5
2019-06-27T04:18:21.129Z,83.6
2019-06-27T04:19:35.188Z,83.3
2019-06-27T04:20:49.333Z,84
2019-06-27T04:22:03.447Z,83.1
2019-06-27T04:23:20.762Z,83.4
2019-06-27T04:24:31.698Z,83.3
2019-06-27T04:25:45.812Z,83.9
2019-06-27T04:26:59.922Z,83.6
2019-06-27T04:28:14.071Z,84
2019-06-27T04:29:28.183Z,83.9
2019-06-27T04:30:42.310Z,83.9
2019-06-27T04:31:56.428Z,83.4
2019-06-27T04:33:10.550Z,83.3
2019-06-27T04:34:24.788Z,82.6
2019-06-27T04:35:38.815Z,83
2019-06-27T04:38:07.078Z,82.6
2019-06-27T04:39:21.170Z,82
2019-06-27T04:41:49.413Z,82
2019-06-27T04:43:03.514Z,81.1
2019-06-27T04:44:17.659Z,81.6
2019-06-27T04:45:31.768Z,81
2019-06-27T04:46:45.916Z,80.8
2019-06-27T04:48:00.029Z,81.4
2019-06-27T04:49:14.362Z,81.1
2019-06-27T04:50:28.268Z,81.1
2019-06-27T04:51:42.385Z,80.9
2019-06-27T04:52:56.510Z,81.3
2019-06-27T04:54:10.633Z,80.5
2019-06-27T04:55:24.857Z,80.2
2019-06-27T04:56:38.875Z,80.5
2019-06-27T04:57:53.105Z,80.1
2019-06-27T04:59:07.119Z,80
2019-06-27T05:00:21.243Z,79.2
2019-06-27T05:01:35.442Z,79.4
2019-06-27T05:02:49.483Z,79.3
2019-06-27T05:04:03.664Z,80
2019-06-27T05:05:17.735Z,79.4
2019-06-27T05:06:31.845Z,79
2019-06-27T05:07:45.968Z,78.2
2019-06-27T05:09:00.096Z,77.2
2019-06-27T05:10:14.286Z,77.7
2019-06-27T05:11:28.350Z,76.5
2019-06-27T05:12:42.613Z,72.9
2019-06-27T05:13:56.584Z,75.1
2019-06-27T05:15:10.717Z,75.7
2019-06-27T05:16:24.837Z,76.8
2019-06-27T05:17:38.950Z,77.9
2019-06-27T05:18:53.099Z,75.7
2019-06-27T05:20:07.318Z,77
2019-06-27T05:21:21.370Z,76.6
2019-06-27T05:22:35.451Z,77.3
2019-06-27T05:23:49.563Z,76.6
2019-06-27T05:25:03.924Z,76
2019-06-27T05:26:17.808Z,77
2019-06-27T05:27:32.018Z,76.6
2019-06-27T05:28:46.048Z,76.1
2019-06-27T05:30:00.291Z,76.3
2019-06-27T05:31:14.359Z,76.6
2019-06-27T05:32:28.419Z,77.2
2019-06-27T05:33:42.561Z,76.8
2019-06-27T05:34:56.693Z,76
2019-06-27T05:36:10.791Z,76.9
2019-06-27T05:37:24.920Z,76
2019-06-27T05:38:39.066Z,77.1
2019-06-27T05:39:53.163Z,77
2019-06-27T05:42:21.454Z,75.7
2019-06-27T05:43:35.521Z,75.1
2019-06-27T05:44:49.750Z,75.5
2019-06-27T05:46:03.817Z,75.8
2019-06-27T05:47:17.990Z,74.7
2019-06-27T05:48:35.451Z,75.3
2019-06-27T05:49:46.136Z,74.4
2019-06-27T05:51:02.842Z,75.4
2019-06-27T05:52:21.468Z,75.6
2019-06-27T05:53:28.512Z,73.5
2019-06-27T05:54:42.635Z,70.5
2019-06-27T05:55:56.799Z,67.3
2019-06-27T05:57:10.864Z,67.1
2019-06-27T05:58:25.030Z,65.1
2019-06-27T05:59:39.148Z,63.5
2019-06-27T06:00:53.252Z,63.6
2019-06-27T06:02:07.456Z,62.7
2019-06-27T06:04:35.606Z,63.4
2019-06-27T06:05:49.808Z,64.9
2019-06-27T06:07:03.926Z,64.2
2019-06-27T06:08:18.035Z,65.9
2019-06-27T06:09:32.111Z,63.9
2019-06-27T06:10:46.267Z,66.4
2019-06-27T06:12:01.579Z,64.5
2019-06-27T06:13:14.642Z,65.9
2019-06-27T06:14:28.616Z,64.6
2019-06-27T06:15:42.729Z,63.8
2019-06-27T06:16:56.958Z,64.1
2019-06-27T06:19:25.169Z,67.1
2019-06-27T06:20:39.242Z,65.8
2019-06-27T06:21:53.318Z,66.4
2019-06-27T06:23:07.463Z,67.1
2019-06-27T06:24:21.671Z,67.7
2019-06-27T06:25:35.708Z,66
2019-06-27T06:26:50.500Z,65.3
2019-06-27T06:28:04.034Z,63.7
2019-06-27T06:29:18.111Z,64.8
2019-06-27T06:30:32.196Z,64.7
2019-06-27T06:31:46.310Z,63.7
2019-06-27T06:33:00.466Z,66
2019-06-27T06:34:14.731Z,65
2019-06-27T06:35:28.697Z,65
2019-06-27T06:36:42.896Z,64.6
2019-06-27T06:39:11.080Z,65.5
2019-06-27T06:41:39.296Z,62.7
2019-06-27T06:42:53.479Z,63
2019-06-27T06:44:07.542Z,61.1
2019-06-27T06:45:21.681Z,63.4
2019-06-27T06:46:35.853Z,64.8
2019-06-27T06:47:49.922Z,64.2
2019-06-27T06:49:05.626Z,61
2019-06-27T06:50:20.680Z,61.1
2019-06-27T06:51:32.279Z,60.9
2019-06-27T06:52:46.436Z,61
2019-06-27T06:54:00.551Z,59.3
2019-06-27T06:55:14.634Z,59.2
2019-06-27T06:56:28.771Z,59.9
2019-06-27T06:58:57.028Z,63.1
2019-06-27T07:00:11.148Z,61.7
2019-06-27T07:01:25.270Z,60.7
2019-06-27T07:02:39.437Z,61.8
2019-06-27T07:03:53.498Z,62.9
2019-06-27T07:05:07.643Z,61.8
2019-06-27T07:06:21.831Z,58.5
2019-06-27T07:07:35.879Z,60.2
2019-06-27T07:08:50.075Z,59.8
2019-06-27T07:10:04.175Z,60.1
2019-06-27T07:11:18.209Z,59.6
2019-06-27T07:12:32.449Z,59.3
2019-06-27T07:13:46.456Z,56.7
2019-06-27T07:16:14.713Z,57.7
2019-06-27T07:18:43.525Z,57.5
2019-06-27T07:21:14.872Z,57
2019-06-27T07:22:25.302Z,55.1
2019-06-27T07:23:39.410Z,57.5
2019-06-27T07:24:53.535Z,57.7
2019-06-27T07:26:07.664Z,57.4
2019-06-27T07:28:35.893Z,56.8
2019-06-27T07:31:04.159Z,59
2019-06-27T07:32:18.269Z,59.1
2019-06-27T07:33:32.463Z,56.7
2019-06-27T07:34:46.527Z,55.9
2019-06-27T07:36:00.631Z,55.2
2019-06-27T07:37:14.735Z,55
2019-06-27T07:38:28.950Z,55.5
2019-06-27T07:39:43.092Z,56
2019-06-27T07:40:57.109Z,55.5
2019-06-27T07:42:11.243Z,54
2019-06-27T07:43:25.489Z,55.5
2019-06-27T07:45:54.167Z,56
2019-06-27T07:47:07.699Z,53.8
2019-06-27T07:48:22.144Z,55.3
2019-06-27T07:49:36.101Z,53.5
2019-06-27T07:50:50.122Z,55.4
2019-06-27T07:52:04.289Z,55.1
2019-06-27T07:53:18.326Z,54.4
2019-06-27T07:54:32.429Z,51.3
2019-06-27T07:55:46.672Z,52.7
2019-06-27T07:57:00.754Z,53.6
2019-06-27T07:58:14.786Z,51.5
2019-06-27T07:59:29.039Z,53
2019-06-27T08:00:43.066Z,54.2
2019-06-27T08:01:57.214Z,52.1
2019-06-27T08:03:11.304Z,51.3
2019-06-27T08:04:25.538Z,52.2
2019-06-27T08:05:39.516Z,52.9
2019-06-27T08:06:53.640Z,53.3
2019-06-27T08:08:07.758Z,54.5
2019-06-27T08:10:36.051Z,57
2019-06-27T08:11:50.211Z,54
2019-06-27T08:13:04.377Z,51.9
2019-06-27T08:14:18.376Z,51.4
2019-06-27T08:15:32.495Z,51.2
2019-06-27T08:18:00.755Z,50.5
2019-06-27T08:19:14.844Z,50.6
2019-06-27T08:20:29.048Z,50.7
2019-06-27T08:21:43.095Z,52
2019-06-27T08:22:57.211Z,51.6
2019-06-27T08:24:11.346Z,49.9
2019-06-27T08:25:25.507Z,51.4
2019-06-27T08:26:39.608Z,50.6
2019-06-27T08:27:53.773Z,50.8
2019-06-27T08:30:22.209Z,50.8
2019-06-27T08:32:50.386Z,48.2
2019-06-27T08:35:18.419Z,50.7
2019-06-27T08:36:32.540Z,49.6
2019-06-27T08:37:46.805Z,52.4
2019-06-27T08:39:00.837Z,52
2019-06-27T08:40:14.910Z,49.8
2019-06-27T08:42:43.154Z,50.8
2019-06-27T08:43:57.292Z,51.1
2019-06-27T08:45:11.396Z,51
2019-06-27T08:46:25.526Z,50.4
2019-06-27T08:47:39.718Z,50.3
2019-06-27T08:48:53.863Z,50.9
2019-06-27T08:50:08.295Z,49.5
2019-06-27T08:52:36.189Z,50.5
2019-06-27T08:53:50.379Z,50.9
2019-06-27T08:55:04.465Z,50.8
2019-06-27T08:56:18.485Z,52.6
2019-06-27T08:57:32.607Z,50.7
2019-06-27T08:58:46.739Z,50.8
2019-06-27T09:00:00.858Z,48.6
2019-06-27T09:01:14.976Z,49.4
2019-06-27T09:02:29.222Z,49.8
2019-06-27T09:03:43.221Z,47.3
2019-06-27T09:04:57.350Z,47.5
2019-06-27T09:06:14.584Z,45.8
2019-06-27T09:07:25.574Z,47
2019-06-27T09:09:53.882Z,45.6
2019-06-27T09:11:07.988Z,47.2
2019-06-27T09:12:22.150Z,49
2019-06-27T09:13:36.522Z,51.4
2019-06-27T09:16:04.441Z,48.9
2019-06-27T09:17:18.615Z,49.5
2019-06-27T09:18:36.447Z,49.6
2019-06-27T09:19:46.822Z,48.3
2019-06-27T09:21:00.933Z,50.1
2019-06-27T09:22:15.063Z,50.8
2019-06-27T09:23:29.634Z,48.4
2019-06-27T09:24:43.316Z,47.8
2019-06-27T09:25:57.469Z,47.9
2019-06-27T09:27:11.534Z,47.5
2019-06-27T09:28:27.179Z,47.7
2019-06-27T09:30:53.980Z,47.7
2019-06-27T09:32:08.027Z,47.7
2019-06-27T09:34:36.333Z,48.8
2019-06-27T09:37:04.538Z,48.8
2019-06-27T09:38:18.720Z,48.7
2019-06-27T09:39:32.752Z,51.3
2019-06-27T09:40:46.884Z,45.3
2019-06-27T09:42:01.008Z,48.1
2019-06-27T09:44:29.284Z,47.6
2019-06-27T09:45:43.361Z,49.6
2019-06-27T09:46:57.493Z,48.2
2019-06-27T09:48:11.637Z,48.4
2019-06-27T09:49:25.852Z,48
2019-06-27T09:50:39.860Z,48.1
2019-06-27T09:51:54.011Z,47.6
2019-06-27T09:53:08.095Z,47.4
2019-06-27T09:54:22.232Z,47.6
2019-06-27T09:55:36.441Z,47.8
2019-06-27T09:56:50.525Z,49.4
2019-06-27T09:58:04.581Z,49.5
2019-06-27T09:59:18.736Z,47.3
2019-06-27T10:00:32.837Z,47.1
2019-06-27T10:01:46.956Z,48.7
2019-06-27T10:03:01.186Z,45.5
2019-06-27T10:04:15.267Z,45.3
2019-06-27T10:05:29.367Z,44.7
2019-06-27T10:06:43.513Z,47
2019-06-27T10:09:11.722Z,47.4
2019-06-27T10:10:25.800Z,48.5
2019-06-27T10:11:39.942Z,48.9
2019-06-27T10:12:54.183Z,46.8
2019-06-27T10:14:08.188Z,47.3
2019-06-27T10:15:22.287Z,45.8
2019-06-27T10:16:36.570Z,47.3
2019-06-27T10:17:50.534Z,48.6
2019-06-27T10:19:08.911Z,43.6
2019-06-27T10:20:18.837Z,45.2
2019-06-27T10:21:32.910Z,45.6
2019-06-27T10:22:47.012Z,45.3
2019-06-27T10:24:01.137Z,45.4
2019-06-27T10:26:29.533Z,45.8
2019-06-27T10:27:43.562Z,45.3
2019-06-27T10:28:57.708Z,45.3
2019-06-27T10:30:11.752Z,43.8
2019-06-27T10:31:25.955Z,42.8
2019-06-27T10:33:54.197Z,46
2019-06-27T10:35:08.251Z,42.8
2019-06-27T10:36:22.363Z,43.8
2019-06-27T10:37:36.698Z,42.9
2019-06-27T10:38:50.607Z,46.9
2019-06-27T10:40:04.926Z,47
2019-06-27T10:41:18.873Z,47.4
2019-06-27T10:42:32.985Z,47
2019-06-27T10:43:47.088Z,46.7
2019-06-27T10:45:01.377Z,45.4
2019-06-27T10:46:15.445Z,45.4
2019-06-27T10:47:29.636Z,44.5
2019-06-27T10:48:43.770Z,44.9
2019-06-27T10:52:26.049Z,44
2019-06-27T10:53:40.160Z,44.5
2019-06-27T10:54:54.237Z,45.5
2019-06-27T10:56:13.001Z,43
2019-06-27T10:57:22.523Z,43.9
2019-06-27T10:58:36.816Z,45.3
2019-06-27T10:59:50.673Z,44.1
2019-06-27T11:01:04.859Z,45
2019-06-27T11:02:18.929Z,45.9
2019-06-27T11:03:33.033Z,45.1
2019-06-27T11:04:47.159Z,44.2
2019-06-27T11:06:01.340Z,44.7
2019-06-27T11:07:15.436Z,45.8
2019-06-27T11:08:29.531Z,45.7
2019-06-27T11:09:43.701Z,47
2019-06-27T11:10:57.780Z,45.8
2019-06-27T11:12:11.892Z,43.5
2019-06-27T11:13:26.150Z,44.1
2019-06-27T11:15:54.268Z,45.5
2019-06-27T11:17:08.464Z,44
2019-06-27T11:18:22.521Z,44.8
2019-06-27T11:19:37.220Z,43.7
2019-06-27T11:20:50.774Z,44.1
2019-06-27T11:22:04.921Z,44.9
2019-06-27T11:23:18.987Z,43.4
2019-06-27T11:24:33.116Z,43.9
2019-06-27T11:25:47.247Z,43.6
2019-06-27T11:27:01.376Z,43.7
2019-06-27T11:28:15.511Z,44.4
2019-06-27T11:29:29.651Z,44.4
2019-06-27T11:30:43.716Z,42.8
2019-06-27T11:31:57.957Z,41.8
2019-06-27T11:33:12.072Z,42.7
2019-06-27T11:34:26.213Z,43.5
2019-06-27T11:35:40.227Z,46.2
2019-06-27T11:36:54.332Z,42.8
2019-06-27T11:38:08.475Z,43.7
2019-06-27T11:39:22.577Z,45.3
2019-06-27T11:40:36.715Z,43.6
2019-06-27T11:41:50.820Z,43.2
2019-06-27T11:44:19.061Z,47.1
2019-06-27T11:45:33.308Z,44.2
2019-06-27T11:48:01.431Z,43.8
2019-06-27T11:49:15.587Z,45
2019-06-27T11:50:29.803Z,46.9
2019-06-27T11:51:43.819Z,44.6
2019-06-27T11:52:57.912Z,45.1
2019-06-27T11:54:12.050Z,44.8
2019-06-27T11:55:26.191Z,45.7
2019-06-27T11:56:40.282Z,43.4
2019-06-27T11:57:54.445Z,43.5
2019-06-27T11:59:08.533Z,44.4
2019-06-27T12:00:22.652Z,43.1
2019-06-27T12:01:36.849Z,43
2019-06-27T12:02:50.897Z,41.5
2019-06-27T12:05:19.170Z,42.9
2019-06-27T12:06:33.261Z,42.9
2019-06-27T12:07:47.385Z,42
2019-06-27T12:09:01.574Z,42.7
2019-06-27T12:10:15.715Z,42
2019-06-27T12:11:29.784Z,41.9
2019-06-27T12:12:43.923Z,41.1
2019-06-27T12:13:58.005Z,44.1
2019-06-27T12:15:12.157Z,45
2019-06-27T12:16:26.252Z,44.2
2019-06-27T12:17:40.367Z,44.7
2019-06-27T12:18:54.529Z,43.4
2019-06-27T12:20:08.675Z,43
2019-06-27T12:21:22.755Z,42.8
2019-06-27T12:22:36.846Z,42.5
2019-06-27T12:25:05.248Z,42.4
2019-06-27T12:27:33.344Z,42.9
2019-06-27T12:28:47.481Z,42.4
2019-06-27T12:30:02.015Z,42.5
2019-06-27T12:31:15.696Z,42.4
2019-06-27T12:32:29.829Z,43.5
2019-06-27T12:33:43.964Z,43.2
2019-06-27T12:34:58.151Z,44.4
2019-06-27T12:36:12.229Z,44
2019-06-27T12:37:26.345Z,44.4
2019-06-27T12:38:40.428Z,42.6
2019-06-27T12:39:54.557Z,46.5
2019-06-27T12:41:08.672Z,44.8
2019-06-27T12:42:22.811Z,43.5
2019-06-27T12:43:36.932Z,44.6
2019-06-27T12:44:51.049Z,44
2019-06-27T12:46:05.157Z,42.8
2019-06-27T12:47:19.297Z,44.4
2019-06-27T12:49:47.528Z,45.2
2019-06-27T12:52:15.794Z,43.5
2019-06-27T12:54:44.091Z,42.4
2019-06-27T12:55:58.202Z,42.7
2019-06-27T12:57:12.304Z,42.1
2019-06-27T12:58:26.381Z,42.6
2019-06-27T12:59:40.535Z,41.8
2019-06-27T13:00:54.641Z,43
2019-06-27T13:02:08.846Z,43.9
2019-06-27T13:03:22.890Z,44.2
2019-06-27T13:04:37.093Z,43.1
2019-06-27T13:05:51.114Z,42.6
2019-06-27T13:08:19.364Z,40.9
2019-06-27T13:09:33.989Z,44.3
2019-06-27T13:10:49.056Z,42.9
2019-06-27T13:12:04.228Z,41.7
2019-06-27T13:13:19.273Z,42.6
2019-06-27T13:14:30.041Z,42.7
2019-06-27T13:15:44.179Z,42.2
2019-06-27T13:16:58.242Z,42.8
2019-06-27T13:18:12.353Z,42.7
2019-06-27T13:19:26.475Z,44.9
2019-06-27T13:20:40.680Z,43.9
2019-06-27T13:21:54.717Z,43.3
2019-06-27T13:23:09.099Z,42.8
2019-06-27T13:24:22.949Z,42.9
2019-06-27T13:25:37.106Z,43.1
2019-06-27T13:26:51.284Z,42.3
2019-06-27T13:28:05.339Z,42.4
2019-06-27T13:29:19.441Z,43.5
2019-06-27T13:30:33.779Z,43.3
2019-06-27T13:31:47.683Z,41.6
2019-06-27T13:33:01.825Z,40.5
2019-06-27T13:34:15.940Z,40.7
2019-06-27T13:35:30.053Z,41.1
2019-06-27T13:36:44.195Z,41.5
2019-06-27T13:37:58.327Z,42.6
2019-06-27T13:39:12.669Z,44.2
2019-06-27T13:40:26.539Z,42.3
2019-06-27T13:41:40.667Z,42.4
2019-06-27T13:42:54.810Z,43.6
2019-06-27T13:44:08.962Z,42.8
2019-06-27T13:45:23.021Z,42.3
2019-06-27T13:46:37.191Z,41.5
2019-06-27T13:47:51.335Z,40.9
2019-06-27T13:49:05.373Z,41.2
2019-06-27T13:50:19.580Z,40.8
2019-06-27T13:51:33.725Z,41.9
2019-06-27T13:52:47.761Z,41.5
2019-06-27T13:54:01.925Z,41.6
2019-06-27T13:55:15.978Z,41.5
2019-06-27T13:56:30.143Z,43.3
2019-06-27T13:57:44.402Z,40.8
2019-06-27T13:58:58.356Z,41.4
2019-06-27T14:00:12.524Z,43.2
2019-06-27T14:01:26.609Z,43.5
2019-06-27T14:03:54.969Z,40.9
2019-06-27T14:05:08.965Z,42.6
2019-06-27T14:06:23.110Z,41.7
2019-06-27T14:07:37.194Z,42.3
2019-06-27T14:08:51.518Z,41.6
2019-06-27T14:11:19.577Z,41.4
2019-06-27T14:12:33.871Z,42.8
2019-06-27T14:13:47.873Z,41.8
2019-06-27T14:15:02.030Z,39.8
2019-06-27T14:16:16.053Z,41.5
2019-06-27T14:17:30.310Z,42.8
2019-06-27T14:18:44.342Z,42
2019-06-27T14:21:12.548Z,42.5
2019-06-27T14:22:26.684Z,40.6
2019-06-27T14:23:40.810Z,40.9
2019-06-27T14:24:54.906Z,39.5
2019-06-27T14:26:09.056Z,38.9
2019-06-27T14:27:23.170Z,40.7
2019-06-27T14:28:37.269Z,40.1
2019-06-27T14:29:51.483Z,39.2
2019-06-27T14:31:05.554Z,40
2019-06-27T14:32:19.693Z,42.6
2019-06-27T14:33:33.894Z,40.7
2019-06-27T14:34:47.886Z,43
2019-06-27T14:36:02.004Z,42.5
2019-06-27T14:37:16.230Z,42.2
2019-06-27T14:38:30.239Z,40.9
2019-06-27T14:40:58.508Z,43.2
2019-06-27T14:42:12.604Z,40.8
2019-06-27T14:43:26.752Z,40.1
2019-06-27T14:44:40.850Z,41.1
2019-06-27T14:45:55.039Z,41.1
2019-06-27T14:47:14.916Z,39.9
2019-06-27T14:48:23.350Z,41.5
2019-06-27T14:49:37.388Z,41.2
2019-06-27T14:50:52.112Z,41.7
2019-06-27T14:52:08.937Z,40.8
2019-06-27T14:53:19.809Z,41.9
2019-06-27T14:54:34.003Z,42.5
2019-06-27T14:55:47.953Z,40.9
2019-06-27T14:57:02.078Z,41.4
2019-06-27T14:58:16.303Z,41.4
2019-06-27T14:59:30.317Z,42.4
2019-06-27T15:00:44.525Z,42.6
2019-06-27T15:01:58.895Z,43
2019-06-27T15:03:12.874Z,44.1
2019-06-27T15:04:26.819Z,44.9
2019-06-27T15:05:40.955Z,44.1
2019-06-27T15:08:09.155Z,44.1
2019-06-27T15:09:23.287Z,44.2
2019-06-27T15:10:37.446Z,43.4
2019-06-27T15:11:51.749Z,43.5
2019-06-27T15:13:05.662Z,44.2
2019-06-27T15:14:19.824Z,44.7
2019-06-27T15:15:34.019Z,44.8
2019-06-27T15:16:48.015Z,44.6
2019-06-27T15:18:02.305Z,44.7
2019-06-27T15:19:16.247Z,44.9
2019-06-27T15:20:30.368Z,46.1
2019-06-27T15:21:44.525Z,44.9
2019-06-27T15:22:58.672Z,45.1
2019-06-27T15:24:12.736Z,44.8
2019-06-27T15:25:26.888Z,44.7
2019-06-27T15:26:40.985Z,45.1
2019-06-27T15:27:55.105Z,44.6
2019-06-27T15:29:09.258Z,43.1
2019-06-27T15:30:23.438Z,44
2019-06-27T15:31:37.544Z,43.4
2019-06-27T15:32:51.668Z,42.9
2019-06-27T15:35:24.133Z,44.4
2019-06-27T15:36:34.009Z,44.2
2019-06-27T15:37:48.148Z,44.8
2019-06-27T15:39:02.232Z,43.5
2019-06-27T15:40:16.363Z,44.1
2019-06-27T15:41:30.465Z,43.5
2019-06-27T15:42:44.772Z,43.9
2019-06-27T15:43:58.685Z,41.4
2019-06-27T15:45:12.905Z,43.9
2019-06-27T15:47:41.064Z,44.1
2019-06-27T15:48:55.297Z,44.3
2019-06-27T15:50:09.280Z,42.4
2019-06-27T15:51:23.422Z,43.3
2019-06-27T15:52:37.543Z,44.2
2019-06-27T15:53:51.842Z,43.7
2019-06-27T15:55:05.773Z,43.2
2019-06-27T15:56:19.955Z,42.9
2019-06-27T15:57:34.039Z,43.5
2019-06-27T16:00:02.316Z,44.6
2019-06-27T16:01:16.383Z,44.8
2019-06-27T16:02:30.494Z,45.4
2019-06-27T16:03:44.695Z,45.3
2019-06-27T16:04:58.843Z,45.1
2019-06-27T16:06:12.876Z,46.3
2019-06-27T16:07:26.973Z,45.5
2019-06-27T16:08:41.135Z,45.1
2019-06-27T16:09:55.218Z,47
2019-06-27T16:11:09.331Z,46
2019-06-27T16:12:23.463Z,45.2
2019-06-27T16:13:37.609Z,46.7
2019-06-27T16:14:51.709Z,45.5
2019-06-27T16:16:05.842Z,45.1
2019-06-27T16:17:20.005Z,44.4
2019-06-27T16:18:37.038Z,45.5
2019-06-27T16:19:48.181Z,45.4
2019-06-27T16:21:02.306Z,44.8
2019-06-27T16:22:16.430Z,44.9
2019-06-27T16:23:30.620Z,46
2019-06-27T16:24:44.688Z,45.4
2019-06-27T16:25:58.812Z,45.1
2019-06-27T16:27:12.909Z,47
2019-06-27T16:28:27.042Z,47.5
2019-06-27T16:29:41.325Z,46.7
2019-06-27T16:30:55.292Z,47.5
2019-06-27T16:32:09.414Z,46.8
2019-06-27T16:34:37.636Z,45.3
2019-06-27T16:35:51.837Z,45.7
2019-06-27T16:37:05.899Z,47
2019-06-27T16:38:20.210Z,46.3
2019-06-27T16:39:34.213Z,47.2
2019-06-27T16:40:48.342Z,48.5
2019-06-27T16:42:02.468Z,46.8
2019-06-27T16:43:16.534Z,47
2019-06-27T16:44:30.619Z,47
2019-06-27T16:45:44.807Z,47.2
2019-06-27T16:46:58.856Z,47
2019-06-27T16:48:13.025Z,47.6
2019-06-27T16:49:27.252Z,46.6
2019-06-27T16:50:41.238Z,45.1
2019-06-27T16:51:55.343Z,45.6
2019-06-27T16:53:09.473Z,45.5
2019-06-27T16:54:23.595Z,47.3
2019-06-27T16:55:37.855Z,46.3
2019-06-27T16:56:51.907Z,46
2019-06-27T16:58:05.970Z,47.5
2019-06-27T16:59:20.086Z,49
2019-06-27T17:01:48.341Z,46.8
2019-06-27T17:03:02.475Z,46
2019-06-27T17:04:16.582Z,46.8
2019-06-27T17:05:30.698Z,47.7
2019-06-27T17:06:44.855Z,47.7
2019-06-27T17:07:59.110Z,46.8
2019-06-27T17:09:13.071Z,47.6
2019-06-27T17:10:27.237Z,48.1
2019-06-27T17:11:41.406Z,48.7
2019-06-27T17:14:10.204Z,48.5
2019-06-27T17:15:23.671Z,48.8
2019-06-27T17:16:37.810Z,49.2
2019-06-27T17:17:52.041Z,49.4
2019-06-27T17:19:08.220Z,48.5
2019-06-27T17:20:26.152Z,47.1
2019-06-27T17:21:34.298Z,48
2019-06-27T17:22:48.411Z,48.4
2019-06-27T17:24:02.550Z,48.5
2019-06-27T17:25:16.739Z,48.7
2019-06-27T17:26:30.786Z,49.4
2019-06-27T17:27:44.894Z,48.5
2019-06-27T17:28:59.122Z,48.7
2019-06-27T17:30:13.149Z,48.5
2019-06-27T17:32:41.399Z,48.1
2019-06-27T17:33:55.534Z,48.6
2019-06-27T17:35:09.672Z,48.4
2019-06-27T17:36:23.775Z,49.1
2019-06-27T17:37:37.894Z,49.1
2019-06-27T17:38:52.018Z,49.3
2019-06-27T17:40:06.253Z,48.2
2019-06-27T17:41:20.334Z,49.4
2019-06-27T17:42:34.370Z,50.8
2019-06-27T17:43:48.529Z,47.8
2019-06-27T17:45:02.607Z,48.7
2019-06-27T17:46:16.736Z,48.5
2019-06-27T17:47:30.884Z,48.5
2019-06-27T17:48:44.981Z,49.2
2019-06-27T17:49:59.140Z,49.3